createdAt,value
2022-07-29T00:01:20.202Z,56.8
2022-07-29T00:04:16.621Z,56.8
2022-07-29T00:07:13.083Z,56.8
2022-07-29T00:10:09.791Z,56.8
2022-07-29T00:13:10.059Z,56.8
2022-07-29T00:16:10.619Z,56.8
2022-07-29T00:19:12.859Z,56.8
2022-07-29T00:22:10.754Z,58.1
2022-07-29T00:25:10.937Z,58.1
2022-07-29T00:28:11.184Z,58.1
2022-07-29T00:31:06.611Z,58.1
2022-07-29T00:34:06.694Z,58.1
2022-07-29T00:37:08.422Z,58.1
2022-07-29T00:40:07.131Z,58.1
2022-07-29T00:43:07.377Z,58.1
2022-07-29T00:46:07.601Z,58.1
2022-07-29T00:49:08.166Z,58.1
2022-07-29T00:52:08.091Z,58.1
2022-07-29T00:55:09.295Z,58.1
2022-07-29T00:58:08.599Z,58.1
2022-07-29T01:01:09.358Z,58.1
2022-07-29T01:04:09.038Z,59.7
2022-07-29T01:07:09.293Z,59.7
2022-07-29T01:10:09.515Z,59.7
2022-07-29T01:13:09.768Z,59.7
2022-07-29T01:16:10.277Z,59.7
2022-07-29T01:19:10.252Z,59.7
2022-07-29T01:22:10.474Z,59.7
2022-07-29T01:25:10.760Z,59.7
2022-07-29T01:28:12.777Z,59.7
2022-07-29T01:31:07.303Z,59.7
2022-07-29T01:34:11.439Z,59.7
2022-07-29T01:37:07.205Z,59.7
2022-07-29T01:40:07.013Z,59.7
2022-07-29T01:43:07.152Z,59.7
2022-07-29T01:46:07.734Z,59.7
2022-07-29T01:49:08.106Z,61.4
2022-07-29T01:52:07.888Z,61.4
2022-07-29T01:55:08.120Z,61.4
2022-07-29T01:58:08.342Z,61.4
2022-07-29T02:01:08.575Z,61.4
2022-07-29T02:04:08.814Z,61.4
2022-07-29T02:07:09.078Z,61.4
2022-07-29T02:10:09.327Z,61.4
2022-07-29T02:13:09.561Z,61.4
2022-07-29T02:16:10.255Z,61.4
2022-07-29T02:19:10.036Z,61.4
2022-07-29T02:22:10.240Z,61.4
2022-07-29T02:25:14.701Z,61.4
2022-07-29T02:28:10.740Z,61.4
2022-07-29T02:31:11.373Z,62.8
2022-07-29T02:34:06.233Z,62.8
2022-07-29T02:37:06.472Z,62.8
2022-07-29T02:40:06.718Z,62.8
2022-07-29T02:43:06.981Z,62.8
2022-07-29T02:46:30.214Z,62.8
2022-07-29T02:49:07.684Z,62.8
2022-07-29T02:52:07.667Z,62.8
2022-07-29T02:55:07.919Z,62.8
2022-07-29T02:58:08.151Z,62.8
2022-07-29T03:01:08.430Z,62.8
2022-07-29T03:04:08.657Z,62.8
2022-07-29T03:07:08.906Z,62.8
2022-07-29T03:10:14.155Z,62.8
2022-07-29T03:13:09.361Z,62.8
2022-07-29T03:16:09.927Z,63.7
2022-07-29T03:19:09.833Z,63.7
2022-07-29T03:22:10.042Z,63.7
2022-07-29T03:25:10.315Z,63.7
2022-07-29T03:28:10.535Z,63.7
2022-07-29T03:31:13.046Z,63.7
2022-07-29T03:34:11.004Z,63.7
2022-07-29T03:37:11.286Z,63.7
2022-07-29T03:40:06.521Z,63.7
2022-07-29T03:43:06.730Z,63.7
2022-07-29T03:46:10.145Z,63.7
2022-07-29T03:49:07.546Z,63.7
2022-07-29T03:52:07.629Z,63.7
2022-07-29T03:55:07.724Z,63.7
2022-07-29T03:58:07.952Z,63.7
2022-07-29T04:01:08.177Z,63.7
2022-07-29T04:04:08.425Z,63.7
2022-07-29T04:07:08.682Z,63.7
2022-07-29T04:10:08.919Z,63.7
2022-07-29T04:13:09.153Z,63.7
2022-07-29T04:40:11.348Z,64.3
2022-07-29T04:43:06.608Z,64.3
2022-07-29T04:46:07.031Z,64.3
2022-07-29T04:49:07.488Z,64.3
2022-07-29T04:52:07.293Z,64.3
2022-07-29T04:55:07.478Z,64.3
2022-07-29T04:58:07.730Z,64.3
2022-07-29T05:01:08.206Z,64.3
2022-07-29T05:04:08.223Z,64.3
2022-07-29T05:07:08.466Z,64.3
2022-07-29T05:10:08.682Z,64.3
2022-07-29T05:13:08.891Z,64.3
2022-07-29T05:16:09.699Z,64.3
2022-07-29T05:19:15.209Z,64.3
2022-07-29T05:22:09.639Z,64.3
2022-07-29T05:25:09.876Z,64.8
2022-07-29T05:28:10.107Z,64.8
2022-07-29T05:31:10.692Z,64.8
2022-07-29T05:34:10.595Z,64.8
2022-07-29T05:37:10.817Z,64.8
2022-07-29T05:40:11.099Z,64.8
2022-07-29T05:43:11.319Z,64.8
2022-07-29T05:46:06.851Z,64.8
2022-07-29T05:49:07.165Z,64.8
2022-07-29T05:52:07.077Z,64.8
2022-07-29T05:55:07.307Z,64.8
2022-07-29T05:58:07.525Z,64.8
2022-07-29T06:01:08.140Z,64.8
2022-07-29T06:04:08.186Z,64.8
2022-07-29T06:07:08.224Z,65.4
2022-07-29T06:10:08.443Z,65.4
2022-07-29T06:13:08.728Z,65.4
2022-07-29T06:16:15.833Z,65.4
2022-07-29T06:19:10.064Z,65.4
2022-07-29T06:22:09.423Z,65.4
2022-07-29T06:25:11.104Z,65.4
2022-07-29T06:28:09.901Z,65.4
2022-07-29T06:31:11.216Z,65.4
2022-07-29T06:34:11.011Z,65.4
2022-07-29T06:37:16.193Z,65.4
2022-07-29T06:40:11.040Z,65.4
2022-07-29T06:43:11.117Z,65.4
2022-07-29T06:46:11.693Z,65.4
2022-07-29T06:49:07.111Z,65.4
2022-07-29T06:52:11.829Z,65.9
2022-07-29T06:55:07.408Z,65.9
2022-07-29T06:58:07.342Z,65.9
2022-07-29T07:01:07.830Z,65.9
2022-07-29T07:04:07.789Z,65.9
2022-07-29T07:07:14.542Z,65.9
2022-07-29T07:10:08.272Z,65.9
2022-07-29T07:13:08.435Z,65.9
2022-07-29T07:16:08.677Z,65.9
2022-07-29T07:19:08.910Z,65.9
2022-07-29T07:22:09.166Z,65.9
2022-07-29T07:25:09.447Z,65.9
2022-07-29T07:28:09.635Z,65.9
2022-07-29T07:31:09.831Z,65.9
2022-07-29T07:34:10.089Z,65.9
2022-07-29T07:37:10.335Z,65.8
2022-07-29T07:40:10.665Z,65.8
2022-07-29T07:43:10.832Z,65.8
2022-07-29T07:46:11.503Z,65.8
2022-07-29T07:49:06.814Z,65.8
2022-07-29T07:52:07.139Z,65.8
2022-07-29T07:55:06.938Z,65.8
2022-07-29T07:58:07.080Z,65.8
2022-07-29T08:01:07.828Z,65.8
2022-07-29T08:04:07.494Z,65.8
2022-07-29T08:07:07.740Z,65.8
2022-07-29T08:10:07.948Z,65.8
2022-07-29T08:13:08.226Z,65.8
2022-07-29T08:16:08.811Z,65.8
2022-07-29T08:19:08.694Z,65.8
2022-07-29T08:22:08.934Z,65.8
2022-07-29T08:25:09.224Z,65.8
2022-07-29T08:28:09.411Z,65.8
2022-07-29T08:31:09.663Z,65.8
2022-07-29T08:34:09.870Z,65.8
2022-07-29T09:04:07.674Z,64.8
2022-07-29T09:07:07.607Z,64.8
2022-07-29T09:10:07.673Z,64.8
2022-07-29T09:13:07.930Z,64.8
2022-07-29T09:16:10.381Z,64.8
2022-07-29T09:19:08.680Z,64.8
2022-07-29T09:22:08.660Z,64.8
2022-07-29T09:25:08.917Z,64.8
2022-07-29T09:28:09.456Z,64.8
2022-07-29T09:31:09.657Z,64.8
2022-07-29T09:34:09.625Z,64.8
2022-07-29T09:37:09.872Z,64.8
2022-07-29T09:40:12.364Z,64.8
2022-07-29T09:43:10.341Z,64.8
2022-07-29T09:46:13.328Z,64.8
2022-07-29T09:49:11.256Z,64.8
2022-07-29T09:52:06.019Z,64.8
2022-07-29T09:55:20.282Z,64.8
2022-07-29T09:58:06.474Z,64.8
2022-07-29T10:01:06.970Z,64.8
2022-07-29T17:40:08.322Z,63.5
2022-07-29T17:43:08.424Z,63.5
2022-07-29T17:46:09.110Z,63.5
2022-07-29T17:49:09.424Z,63.5
2022-07-29T17:52:09.150Z,63.5
2022-07-29T17:55:09.410Z,63.5
2022-07-29T17:58:09.575Z,63.5
2022-07-29T18:01:10.242Z,63.5
2022-07-29T18:04:10.088Z,63.5
2022-07-29T18:07:11.417Z,63.5
2022-07-29T18:10:10.594Z,63.5
2022-07-29T18:13:11.065Z,63.5
2022-07-29T18:16:11.339Z,63.5
2022-07-29T18:19:11.314Z,63.5
2022-07-29T18:22:07.030Z,63.5
2022-07-29T18:25:12.147Z,63.5
2022-07-29T18:28:06.982Z,63.5
2022-07-29T18:31:07.609Z,63.5
2022-07-29T18:34:07.762Z,63.5
2022-07-29T18:37:07.716Z,63.5
2022-07-29T19:07:10.228Z,62.4
2022-07-29T19:10:10.498Z,62.4
2022-07-29T19:13:14.121Z,62.4
2022-07-29T19:16:11.370Z,62.4
2022-07-29T19:19:06.031Z,62.4
2022-07-29T19:22:11.480Z,62.4
2022-07-29T19:25:06.542Z,62.4
2022-07-29T19:28:06.731Z,62.4
2022-07-29T19:31:07.858Z,62.4
2022-07-29T19:34:07.231Z,62.4
2022-07-29T19:37:07.453Z,62.4
2022-07-29T19:40:07.970Z,62.4
2022-07-29T19:43:53.589Z,62.4
2022-07-29T19:46:08.475Z,62.4
2022-07-29T19:49:08.949Z,62.4
2022-07-29T19:52:08.638Z,61.9
2022-07-29T19:55:08.897Z,61.9
2022-07-29T19:58:09.064Z,61.9
2022-07-29T20:01:11.313Z,61.9
2022-07-29T20:04:09.524Z,61.9
2022-07-29T20:07:09.934Z,61.9
2022-07-29T20:10:10.053Z,61.9
2022-07-29T20:13:10.234Z,61.9
2022-07-29T20:16:10.953Z,61.9
2022-07-29T20:19:10.727Z,61.9
2022-07-29T20:22:10.955Z,61.9
2022-07-29T20:25:06.468Z,61.9
2022-07-29T20:28:06.681Z,61.9
2022-07-29T20:31:07.145Z,61.9
2022-07-29T20:34:06.946Z,61.4
2022-07-29T20:37:07.134Z,61.4
2022-07-29T20:40:13.012Z,61.4
2022-07-29T20:43:08.121Z,61.4
2022-07-29T20:46:08.548Z,61.4
2022-07-29T20:49:08.566Z,61.4
2022-07-29T20:52:08.615Z,61.4
2022-07-29T20:55:08.758Z,61.4
2022-07-29T20:58:08.861Z,61.4
2022-07-29T21:01:09.733Z,61.4
2022-07-29T21:04:09.278Z,61.4
2022-07-29T21:07:09.513Z,61.4
2022-07-29T21:10:10.088Z,61.4
2022-07-29T21:13:10.011Z,61.4
2022-07-29T21:16:15.582Z,60.9
2022-07-29T21:19:10.458Z,60.9
2022-07-29T21:22:11.169Z,60.9
2022-07-29T21:25:06.521Z,60.9
2022-07-29T21:28:10.288Z,60.9
2022-07-29T21:31:06.705Z,60.9
2022-07-29T21:34:06.698Z,60.9
2022-07-29T21:37:09.559Z,60.9
2022-07-29T21:40:07.180Z,60.9
2022-07-29T21:43:07.372Z,60.9
2022-07-29T21:46:07.907Z,60.9
2022-07-29T21:49:08.400Z,60.9
2022-07-29T21:52:09.589Z,60.9
2022-07-29T21:55:12.268Z,60.9
2022-07-29T21:58:08.827Z,60.9
2022-07-29T22:01:14.276Z,60.9
2022-07-29T22:04:09.557Z,60.9
2022-07-29T22:07:09.310Z,60.9
2022-07-29T22:10:10.777Z,60.9
2022-07-29T22:13:09.803Z,60.9
2022-07-29T22:16:10.048Z,60.9
2022-07-29T22:19:10.417Z,60.9
2022-07-29T22:22:10.468Z,60.9
2022-07-29T22:25:10.778Z,60.9
2022-07-29T22:28:10.979Z,60.9
2022-07-29T22:31:11.649Z,60.9
2022-07-29T22:34:11.491Z,60.9
2022-07-29T22:37:06.657Z,60.9
2022-07-29T22:40:06.881Z,60.9
2022-07-29T22:43:07.118Z,61.3
2022-07-29T22:46:07.826Z,61.3
2022-07-29T22:49:07.962Z,61.3
2022-07-29T22:52:07.868Z,61.3
2022-07-29T22:55:08.106Z,61.3
2022-07-29T22:58:08.367Z,61.3
2022-07-29T23:01:09.164Z,61.3
2022-07-29T23:04:09.306Z,61.3
2022-07-29T23:07:09.091Z,61.3
2022-07-29T23:10:09.330Z,61.3
2022-07-29T23:13:09.516Z,61.3
2022-07-29T23:16:09.784Z,61.3
2022-07-29T23:19:10.020Z,61.3
2022-07-29T23:22:10.280Z,61.3
2022-07-29T23:25:10.496Z,61.3
2022-07-29T23:28:13.689Z,62.6
2022-07-29T23:31:11.381Z,62.6
2022-07-29T23:34:06.214Z,62.6
2022-07-29T23:37:06.461Z,62.6
2022-07-29T23:40:15.229Z,62.6
2022-07-29T23:43:09.434Z,62.6
2022-07-29T23:46:08.654Z,62.6
2022-07-29T23:49:07.757Z,62.6
2022-07-29T23:52:07.695Z,62.6
2022-07-29T23:55:39.756Z,62.6
2022-07-29T23:58:08.138Z,62.6
